Latest Weather Observations for PORTABLE BTSA (DFES)

IDW60801

Issued at 1:43 pm WST Saturday 10 December 2022 (issued every 10 minutes, with the page automatically refreshed every 10 minutes)

About weather observations | Map of weather stations | Latest weather observations for WA | Other Formats
Station Details ID: 250109 Name: DFES PORTABLE AWS A Lat: -25.06 Lon: 115.21 Height: 147.0 m

Portable automatic weather stations (PAWS) are operated by other organisations, such as Fire and Emergency Services, and are included here by agreement. Portable stations may be deployed to a location for a short period and their location may be subject to change without notice. Wind observations from these stations are provided from heights of either three (3) or ten (10) metres above ground level (AGL).

Data from the previous 72 hours. | See also: Recent months for locations in Western Australia
Date/Time
WST
Temp
°C
App
Temp
°C
Dew
Point
°C
Rel
Hum
%
Delta-T
°C
Wind Press
QNH
hPa
Press
MSL
hPa
Rain since
9am
mm
Dir  Spd
km/h
Gust
km/h
Spd
kts
Gust
kts
10/01:30pm 35.2 31.9 6.3 16 15.9 WSW 13 19 7 10 - - 0.0
10/01:20pm 35.1 32.1 5.8 16 16.0 WSW 11 17 6 9 - - 0.0
10/01:10pm 34.9 32.0 6.7 17 15.6 WSW 11 13 6 7 - - 0.0
10/01:00pm 34.3 31.5 7.0 18 15.1 SW 11 19 6 10 - - 0.0
10/12:50pm 34.2 31.8 7.1 18 15.0 WSW 9 15 5 8 - - 0.0
10/12:40pm 34.5 32.4 8.1 19 14.9 SSW 9 13 5 7 - - 0.0
10/12:30pm 34.3 32.7 8.2 20 14.7 SW 6 9 3 5 - - 0.0
10/12:20pm 33.5 31.7 7.9 20 14.3 WSW 7 15 4 8 - - 0.0
10/12:10pm 33.6 31.1 8.1 20 14.3 SW 11 15 6 8 - - 0.0
10/12:00pm 33.4 31.7 7.7 20 14.3 W 6 11 3 6 - - 0.0
10/11:50am 33.5 31.9 8.2 21 14.2 ESE 6 7 3 4 - - 0.0
10/11:40am 32.8 31.1 7.6 21 14.0 SSE 6 9 3 5 - - 0.0
10/11:30am 32.1 30.2 7.7 22 13.5 S 7 11 4 6 - - 0.0
10/11:20am 31.8 30.0 7.9 22 13.3 SSE 7 11 4 6 - - 0.0
10/11:10am 31.0 28.8 7.7 23 12.8 S 9 11 5 6 - - 0.0
10/11:00am 30.9 28.8 8.1 24 12.6 SSE 9 13 5 7 - - 0.0
10/10:50am 30.8 29.0 7.8 23 12.7 SE 7 11 4 6 - - 0.0
10/10:40am 30.2 28.4 8.0 25 12.2 SE 7 11 4 6 - - 0.0
10/10:30am 29.7 27.6 8.1 26 11.9 ESE 9 13 5 7 - - 0.0
10/10:20am 29.3 27.6 8.3 26 11.6 SE 7 13 4 7 - - 0.0
10/10:10am 29.2 27.6 8.0 26 11.6 SSE 6 11 3 6 - - 0.0
10/10:00am 28.7 26.6 8.1 27 11.3 ESE 9 15 5 8 - - 0.0
10/09:50am 28.4 26.2 8.0 27 11.1 ESE 9 15 5 8 - - 0.0
10/09:40am 28.1 26.3 8.1 28 10.9 SE 7 13 4 7 - - 0.0
10/09:30am 27.4 25.3 8.3 30 10.4 SE 9 11 5 6 - - 0.0
10/09:20am 27.1 24.6 8.3 30 10.2 SE 11 15 6 8 - - 0.0
10/09:10am 26.4 23.9 8.3 31 9.8 SE 11 15 6 8 - - 0.0
10/09:00am 25.9 23.4 8.4 33 9.5 SE 11 13 6 7 - - 0.0
10/08:50am 25.4 22.9 8.3 33 9.2 SE 11 13 6 7 - - 0.0
10/08:40am 24.9 22.4 8.4 35 8.9 SE 11 15 6 8 - - 0.0
10/08:30am 24.6 22.2 8.5 36 8.7 SE 11 13 6 7 - - 0.0
10/08:20am 24.1 21.7 8.6 37 8.4 SE 11 15 6 8 - - 0.0
10/08:10am 23.8 21.4 8.7 38 8.1 SSE 11 15 6 8 - - 0.0
10/08:00am 23.0 20.6 8.5 39 7.8 SSE 11 17 6 9 - - 0.0
10/07:50am 22.7 20.3 8.8 41 7.5 SSE 11 15 6 8 - - 0.0
10/07:40am 22.4 20.1 8.9 42 7.2 SSE 11 13 6 7 - - 0.0
10/07:30am 22.0 19.6 8.8 43 7.1 SSE 11 13 6 7 - - 0.0
10/07:20am 21.5 19.1 8.7 44 6.8 SSE 11 15 6 8 - - 0.0
10/07:10am 21.1 18.7 8.7 45 6.6 SSE 11 13 6 7 - - 0.0
10/07:00am 20.5 18.1 8.7 46 6.2 SSE 11 15 6 8 - - 0.0
10/06:50am 20.1 17.7 8.7 48 6.0 S 11 11 6 6 - - 0.0
10/06:40am 19.7 17.3 8.7 49 5.8 S 11 13 6 7 - - 0.0
10/06:30am 19.4 17.0 8.6 49 5.7 S 11 13 6 7 - - 0.0
10/06:20am 19.1 16.7 8.6 50 5.5 S 11 13 6 7 - - 0.0
10/06:10am 18.9 16.5 8.5 51 5.4 S 11 11 6 6 - - 0.0
10/06:00am 18.7 16.7 8.5 51 5.3 S 9 11 5 6 - - 0.0
10/05:50am 18.6 16.5 8.4 51 5.3 SSW 9 9 5 5 - - 0.0
10/05:40am 18.4 16.3 8.4 52 5.2 SSW 9 11 5 6 - - 0.0
10/05:30am 18.4 16.3 8.3 51 5.2 S 9 11 5 6 - - 0.0
10/05:20am 18.4 15.9 8.4 52 5.2 S 11 11 6 6 - - 0.0
10/05:10am 18.5 16.0 8.4 51 5.2 S 11 13 6 7 - - 0.0
10/05:00am 18.6 15.7 8.3 51 5.3 S 13 15 7 8 - - 0.0
10/04:50am 18.7 16.2 8.3 50 5.4 S 11 13 6 7 - - 0.0
10/04:40am 18.8 16.3 8.2 50 5.5 S 11 13 6 7 - - 0.0
10/04:30am 18.9 16.4 8.2 50 5.6 S 11 13 6 7 - - 0.0
10/04:20am 19.0 16.5 8.2 49 5.6 S 11 13 6 7 - - 0.0
10/04:10am 19.1 16.6 8.4 50 5.6 S 11 11 6 6 - - 0.0
10/04:00am 19.2 16.8 8.5 50 5.6 S 11 13 6 7 - - 0.0
10/03:50am 19.3 16.9 8.5 49 5.6 SSW 11 11 6 6 - - 0.0
10/03:40am 19.3 16.9 8.7 50 5.6 SSW 11 11 6 6 - - 0.0
10/03:30am 19.4 17.0 8.8 50 5.6 SSW 11 13 6 7 - - 0.0
10/03:20am 19.5 17.2 8.9 50 5.6 SSW 11 11 6 6 - - 0.0
10/03:10am 19.6 17.3 9.0 50 5.6 SSW 11 11 6 6 - - 0.0
10/03:00am 19.7 17.4 9.0 50 5.7 SSW 11 13 6 7 - - 0.0
10/02:50am 19.8 17.6 9.2 50 5.6 SSW 11 13 6 7 - - 0.0
10/02:40am 19.8 17.6 9.3 50 5.6 SSW 11 13 6 7 - - 0.0
10/02:30am 19.9 17.3 9.4 50 5.6 SSW 13 15 7 8 - - 0.0
10/02:20am 19.9 17.3 9.5 51 5.6 SSW 13 15 7 8 - - 0.0
10/02:10am 20.0 17.5 9.6 51 5.6 SSW 13 15 7 8 - - 0.0
10/02:00am 20.1 17.6 9.7 51 5.6 SSW 13 15 7 8 - - 0.0
10/01:50am 20.1 17.6 9.7 51 5.6 SSW 13 15 7 8 - - 0.0
10/01:40am 20.2 17.7 9.7 51 5.6 SSW 13 15 7 8 - - 0.0
10/01:30am 20.3 17.8 9.7 50 5.7 SSW 13 15 7 8 - - 0.0
10/01:20am 20.4 17.5 9.8 50 5.7 SSW 15 17 8 9 - - 0.0
10/01:10am 20.5 17.6 9.8 50 5.8 SSW 15 17 8 9 - - 0.0
10/01:00am 20.6 18.1 9.8 50 5.8 SSW 13 15 7 8 - - 0.0
10/12:50am 20.7 17.8 9.8 49 5.9 SSW 15 17 8 9 - - 0.0
10/12:40am 20.9 18.5 9.9 49 6.0 SSW 13 17 7 9 - - 0.0
10/12:30am 21.0 17.8 9.9 49 6.0 SSW 17 19 9 10 - - 0.0
10/12:20am 21.2 18.4 10.0 48 6.1 SSW 15 17 8 9 - - 0.0
10/12:10am 21.5 18.7 10.1 48 6.2 SSW 15 20 8 11 - - 0.0
10/12:00am 21.6 18.1 10.1 48 6.3 SSW 19 22 10 12 - - 0.0
 
Date/Time
WST
Temp
°C
App
Temp
°C
Dew
Point
°C
Rel
Hum
%
Delta-T
°C
Wind Press
QNH
hPa
Press
MSL
hPa
Rain since
9am
mm
Dir  Spd
km/h
Gust
km/h
Spd
kts
Gust
kts
09/11:50pm 21.8 18.7 10.2 47 6.4 SSW 17 20 9 11 - - 0.0
09/11:40pm 22.0 18.9 10.3 47 6.4 SSW 17 20 9 11 - - 0.0
09/11:30pm 22.2 19.1 10.3 46 6.5 SSW 17 19 9 10 - - 0.0
09/11:20pm 22.2 19.5 10.4 47 6.5 SW 15 19 8 10 - - 0.0
09/11:10pm 22.3 19.6 10.4 46 6.6 SW 15 19 8 10 - - 0.0
09/11:00pm 22.4 19.7 10.5 47 6.6 SW 15 17 8 9 - - 0.0
09/10:50pm 22.5 19.9 10.6 47 6.6 SW 15 19 8 10 - - 0.0
09/10:40pm 22.6 20.0 10.8 47 6.6 SW 15 19 8 10 - - 0.0
09/10:30pm 22.7 19.4 10.9 47 6.6 SW 19 20 10 11 - - 0.0
09/10:20pm 22.8 19.6 11.2 48 6.5 SW 19 20 10 11 - - 0.0
09/10:10pm 22.9 19.7 11.4 48 6.5 SW 19 22 10 12 - - 0.0
09/10:00pm 22.9 19.8 11.6 49 6.4 SW 19 24 10 13 - - 0.0
09/09:50pm 23.1 19.9 12.0 49 6.3 SW 20 22 11 12 - - 0.0
09/09:40pm 23.3 20.8 12.4 50 6.3 SW 17 20 9 11 - - 0.0
09/09:30pm 23.4 19.9 12.3 49 6.4 SW 22 24 12 13 - - 0.0
09/09:20pm 23.6 20.1 12.3 49 6.5 SW 22 24 12 13 - - 0.0
09/09:10pm 23.9 20.5 12.5 49 6.6 SW 22 26 12 14 - - 0.0
09/09:00pm 24.2 21.4 12.6 48 6.7 SW 19 22 10 12 - - 0.0
09/08:50pm 24.3 20.5 12.5 47 6.8 SW 24 28 13 15 - - 0.0
09/08:40pm 24.6 21.2 12.4 46 7.0 SW 22 26 12 14 - - 0.0
09/08:30pm 24.9 21.5 12.6 46 7.1 SW 22 26 12 14 - - 0.0
09/08:20pm 25.2 21.8 12.4 45 7.4 SW 22 26 12 14 - - 0.0
09/08:10pm 25.6 21.8 12.4 43 7.7 SW 24 26 13 14 - - 0.0
09/08:00pm 26.3 23.3 12.6 42 8.0 SW 20 26 11 14 - - 0.0
09/07:50pm 27.0 23.3 11.5 38 8.9 SW 22 24 12 13 - - 0.0
09/07:40pm 27.8 24.1 10.1 33 10.0 SW 20 26 11 14 - - 0.0
09/07:30pm 28.2 24.5 10.0 32 10.3 SW 20 22 11 12 - - 0.0
09/07:20pm 28.6 25.0 10.0 31 10.5 SW 19 22 10 12 - - 0.0
09/07:10pm 28.9 25.1 9.7 30 10.8 SW 20 24 11 13 - - 0.0
09/07:00pm 29.4 25.5 9.6 29 11.2 SW 20 22 11 12 - - 0.0
09/06:50pm 29.9 26.0 9.3 27 11.6 SW 20 22 11 12 - - 0.0
09/06:40pm 30.5 26.7 9.1 26 12.0 SW 19 22 10 12 - - 0.0
09/06:30pm 31.3 27.4 8.5 24 12.7 SSW 19 20 10 11 - - 0.0
09/06:20pm 31.9 28.5 7.8 22 13.4 SW 15 17 8 9 - - 0.0
09/06:10pm 32.0 29.0 7.7 22 13.4 SSW 13 17 7 9 - - 0.0
09/06:00pm 32.2 28.8 7.5 21 13.6 SSW 15 19 8 10 - - 0.0
09/05:50pm 32.5 29.0 7.4 21 13.9 SSW 15 19 8 10 - - 0.0
09/05:40pm 32.6 29.2 7.6 21 13.9 SW 15 17 8 9 - - 0.0
09/05:30pm 32.9 29.5 7.6 21 14.0 SW 15 19 8 10 - - 0.0
09/05:20pm 33.1 30.5 7.8 21 14.1 SW 11 13 6 7 - - 0.0
09/05:10pm 33.1 30.1 7.5 20 14.2 WSW 13 17 7 9 - - 0.0
09/05:00pm 33.3 30.3 7.5 20 14.3 WSW 13 17 7 9 - - 0.0
09/04:50pm 33.1 30.1 7.5 20 14.2 SW 13 17 7 9 - - 0.0
09/04:40pm 33.7 30.7 7.6 20 14.5 WSW 13 17 7 9 - - 0.0
09/04:30pm 33.5 30.5 7.5 20 14.4 WSW 13 15 7 8 - - 0.0
09/04:20pm 33.3 29.9 7.8 20 14.2 WSW 15 20 8 11 - - 0.0
09/04:10pm 33.1 29.7 7.6 20 14.2 SW 15 19 8 10 - - 0.0
09/04:00pm 33.5 30.5 7.8 20 14.3 WSW 13 19 7 10 - - 0.0
09/03:50pm 33.2 30.3 8.2 21 14.0 WSW 13 20 7 11 - - 0.0
09/03:40pm 33.2 29.9 7.9 21 14.1 WSW 15 20 8 11 - - 0.0
09/03:30pm 33.0 30.0 7.6 20 14.1 SW 13 17 7 9 - - 0.0
09/03:20pm 33.1 29.8 8.1 21 14.0 WSW 15 19 8 10 - - 0.0
09/03:10pm 33.3 31.1 7.9 20 14.2 SW 9 17 5 9 - - 0.0
09/03:00pm 33.2 29.9 8.0 21 14.1 WSW 15 19 8 10 - - 0.0
09/02:50pm 32.6 30.1 8.3 22 13.6 SSW 11 19 6 10 - - 0.0
09/02:40pm 32.9 30.7 8.0 21 13.9 WNW 9 11 5 6 - - 0.0
09/02:30pm 33.0 29.4 8.3 21 13.9 WSW 17 20 9 11 - - 0.0
09/02:20pm 32.7 30.2 8.2 22 13.7 S 11 17 6 9 - - 0.0
09/02:10pm 32.4 30.3 8.4 22 13.5 SW 9 15 5 8 - - 0.0
09/02:00pm 32.8 29.5 7.9 21 13.9 WSW 15 19 8 10 - - 0.0
09/01:50pm 32.2 29.6 7.8 22 13.5 S 11 17 6 9 - - 0.0
09/01:40pm 32.4 30.5 8.9 23 13.3 SW 9 17 5 9 - - 0.0
09/01:30pm 31.5 30.0 9.1 25 12.6 S 7 19 4 10 - - 0.0
09/01:20pm 31.9 29.6 9.1 24 12.9 WSW 11 19 6 10 - - 0.0
09/01:10pm 31.5 29.0 9.8 26 12.4 W 13 17 7 9 - - 0.0
09/01:00pm 31.5 29.9 10.2 27 12.2 S 9 13 5 7 - - 0.0
09/12:50pm 30.8 29.3 10.5 28 11.7 WSW 9 17 5 9 - - 0.0
09/12:40pm 30.3 28.8 10.5 29 11.4 SSW 9 17 5 9 - - 0.0
09/12:30pm 31.0 29.9 10.8 28 11.7 SW 7 11 4 6 - - 0.0
09/12:20pm 30.3 29.2 10.7 29 11.3 SSE 7 11 4 6 - - 0.0
09/12:10pm 29.5 27.6 10.6 31 10.8 S 11 17 6 9 - - 0.0
09/12:00pm 29.8 28.0 10.7 30 11.0 S 11 19 6 10 - - 0.0
09/11:50am 29.6 27.5 11.0 31 10.7 SSW 13 17 7 9 - - 0.0
09/11:40am 28.9 27.5 10.9 32 10.3 SSW 9 17 5 9 - - 0.0
09/11:30am 28.5 26.3 10.8 33 10.1 S 13 19 7 10 - - 0.0
09/11:20am 28.6 26.0 10.7 32 10.2 SW 15 20 8 11 - - 0.0
09/11:10am 28.3 26.4 10.5 33 10.1 SW 11 17 6 9 - - 0.0
09/11:00am 27.6 25.8 10.9 35 9.5 SSW 11 17 6 9 - - 0.0
09/10:50am 27.0 25.2 11.0 36 9.1 SSW 11 15 6 8 - - 0.0
09/10:40am 27.1 25.3 10.9 36 9.2 SW 11 13 6 7 - - 0.0
09/10:30am 26.9 25.2 11.1 37 9.0 S 11 15 6 8 - - 0.0
09/10:20am 26.1 24.3 10.9 38 8.6 SSW 11 15 6 8 - - 0.0
09/10:10am 26.0 23.8 10.9 38 8.6 SSW 13 17 7 9 - - 0.0
09/10:00am 25.7 23.6 11.1 40 8.3 SSW 13 15 7 8 - - 0.0
09/09:50am 25.1 23.4 11.2 41 7.9 SSW 11 15 6 8 - - 0.0
09/09:40am 24.9 22.8 11.2 42 7.8 S 13 17 7 9 - - 0.0
09/09:30am 25.0 23.2 11.0 41 7.9 S 11 15 6 8 - - 0.0
09/09:20am 24.9 23.6 11.4 42 7.7 S 9 15 5 8 - - 0.0
09/09:10am 24.0 22.7 11.1 44 7.3 SSW 9 13 5 7 - - 0.0
09/09:00am 23.8 22.5 11.4 45 7.0 S 9 13 5 7 - - 0.0
09/08:50am 23.2 21.5 11.3 47 6.7 S 11 13 6 7 - - 0.0
09/08:40am 23.2 21.9 11.4 47 6.6 S 9 13 5 7 - - 0.0
09/08:30am 22.6 20.9 11.3 48 6.3 S 11 15 6 8 - - 0.0
09/08:20am 22.2 20.2 11.5 50 6.0 S 13 17 7 9 - - 0.0
09/08:10am 22.0 20.4 11.6 51 5.8 S 11 15 6 8 - - 0.0
09/08:00am 21.6 20.0 11.7 53 5.6 S 11 15 6 8 - - 0.0
09/07:50am 21.2 19.3 11.7 54 5.3 S 13 15 7 8 - - 0.0
09/07:40am 20.8 18.8 11.6 55 5.1 S 13 17 7 9 - - 0.0
09/07:30am 20.7 18.8 11.9 57 4.9 S 13 19 7 10 - - 0.0
09/07:20am 20.2 18.2 11.5 57 4.8 S 13 17 7 9 - - 0.0
09/07:10am 19.9 17.2 11.8 59 4.5 S 17 20 9 11 - - 0.0
09/07:00am 19.7 17.4 11.7 60 4.5 S 15 17 8 9 - - 0.0
09/06:50am 19.4 17.5 11.7 61 4.3 S 13 17 7 9 - - 0.0
09/06:40am 19.2 17.2 11.6 61 4.2 S 13 17 7 9 - - 0.0
09/06:30am 18.9 16.6 11.6 62 4.0 SSW 15 17 8 9 - - 0.0
09/06:20am 18.8 16.8 11.6 63 4.0 SSW 13 17 7 9 - - 0.0
09/06:10am 18.6 16.6 11.5 63 3.9 SSW 13 17 7 9 - - 0.0
09/06:00am 18.5 16.5 11.5 63 3.9 SSW 13 15 7 8 - - 0.0
09/05:50am 18.3 16.7 11.4 64 3.8 SSW 11 13 6 7 - - 0.0
09/05:40am 18.3 17.0 11.4 64 3.8 SSW 9 13 5 7 - - 0.0
09/05:30am 18.2 16.1 11.3 64 3.8 S 13 15 7 8 - - 0.0
09/05:20am 18.3 16.6 11.3 63 3.8 SSW 11 15 6 8 - - 0.0
09/05:10am 18.3 17.0 11.3 63 3.8 SSW 9 11 5 6 - - 0.0
09/05:00am 18.5 16.9 11.4 63 3.9 SSW 11 13 6 7 - - 0.0
09/04:50am 18.5 16.4 11.3 63 4.0 SSW 13 15 7 8 - - 0.0
09/04:40am 18.5 16.9 11.4 63 3.9 SSW 11 13 6 7 - - 0.0
09/04:30am 18.6 17.0 11.6 63 3.9 SSW 11 11 6 6 - - 0.0
09/04:20am 18.7 17.1 11.7 63 3.9 SSW 11 13 6 7 - - 0.0
09/04:10am 18.8 17.3 11.8 64 3.9 SSW 11 13 6 7 - - 0.0
09/04:00am 18.9 17.8 11.8 63 3.9 SW 9 11 5 6 - - 0.0
09/03:50am 18.9 17.4 11.9 64 3.9 SW 11 11 6 6 - - 0.0
09/03:40am 19.1 17.6 11.9 63 4.0 SSW 11 11 6 6 - - 0.0
09/03:30am 19.2 18.1 12.0 63 4.0 SW 9 11 5 6 - - 0.0
09/03:20am 19.3 18.2 12.0 62 4.1 SW 9 13 5 7 - - 0.0
09/03:10am 19.4 18.3 11.9 62 4.2 SW 9 11 5 6 - - 0.0
09/03:00am 19.5 18.0 12.0 62 4.2 SW 11 11 6 6 - - 0.0
09/02:50am 19.6 18.5 12.0 61 4.3 SW 9 11 5 6 - - 0.0
09/02:40am 19.7 18.2 12.0 61 4.3 SW 11 11 6 6 - - 0.0
09/02:30am 19.8 18.3 12.0 60 4.4 SSW 11 13 6 7 - - 0.0
09/02:20am 19.9 18.4 12.0 60 4.4 SW 11 13 6 7 - - 0.0
09/02:10am 20.0 18.2 12.0 60 4.5 SSW 13 15 7 8 - - 0.0
09/02:00am 20.1 17.9 12.0 59 4.5 SSW 15 17 8 9 - - 0.0
09/01:50am 20.2 18.0 12.0 59 4.6 SSW 15 17 8 9 - - 0.0
09/01:40am 20.3 18.5 12.0 59 4.7 SSW 13 15 7 8 - - 0.0
09/01:30am 20.4 18.2 12.0 58 4.7 SSW 15 17 8 9 - - 0.0
09/01:20am 20.7 18.9 12.0 57 4.9 SSW 13 15 7 8 - - 0.0
09/01:10am 20.8 18.6 12.0 57 5.0 SSW 15 17 8 9 - - 0.0
09/01:00am 20.9 18.3 12.0 56 5.0 SSW 17 20 9 11 - - 0.0
09/12:50am 21.0 18.4 12.1 56 5.0 SSW 17 20 9 11 - - 0.0
09/12:40am 21.2 19.0 12.1 56 5.1 SSW 15 17 8 9 - - 0.0
09/12:30am 21.3 19.1 12.2 56 5.2 SSW 15 17 8 9 - - 0.0
09/12:20am 21.4 19.2 12.2 55 5.2 SSW 15 17 8 9 - - 0.0
09/12:10am 21.6 19.1 12.3 55 5.3 SSW 17 20 9 11 - - 0.0
09/12:00am 21.8 19.3 12.3 54 5.4 SSW 17 20 9 11 - - 0.0
 
Date/Time
WST
Temp
°C
App
Temp
°C
Dew
Point
°C
Rel
Hum
%
Delta-T
°C
Wind Press
QNH
hPa
Press
MSL
hPa
Rain since
9am
mm
Dir  Spd
km/h
Gust
km/h
Spd
kts
Gust
kts
08/11:50pm 22.1 19.6 12.4 54 5.5 SSW 17 19 9 10 - - 0.0
08/11:40pm 22.3 20.3 12.6 54 5.6 SSW 15 17 8 9 - - 0.0
08/11:30pm 22.5 20.9 12.7 54 5.6 SSW 13 17 7 9 - - 0.0
08/11:20pm 22.6 20.2 12.8 54 5.6 SSW 17 20 9 11 - - 0.0
08/11:10pm 22.7 20.3 12.8 53 5.7 SSW 17 19 9 10 - - 0.0
08/11:00pm 22.8 20.8 12.8 53 5.8 SW 15 19 8 10 - - 0.0
08/10:50pm 22.9 20.9 12.8 53 5.8 SW 15 17 8 9 - - 0.0
08/10:40pm 23.0 21.0 12.8 52 5.9 SW 15 15 8 8 - - 0.0
08/10:30pm 23.1 21.5 12.9 52 5.9 SW 13 17 7 9 - - 0.0
08/10:20pm 23.2 21.3 12.9 52 6.0 SW 15 19 8 10 - - 0.0
08/10:10pm 23.2 20.9 12.9 52 6.0 SW 17 19 9 10 - - 0.0
08/10:00pm 23.4 21.1 13.1 52 6.0 SW 17 19 9 10 - - 0.0
08/09:50pm 23.5 20.9 13.1 52 6.0 SW 19 20 10 11 - - 0.0
08/09:40pm 23.7 21.5 13.3 52 6.1 SW 17 20 9 11 - - 0.0
08/09:30pm 23.8 21.1 13.5 52 6.0 SW 20 26 11 14 - - 0.0
08/09:20pm 24.0 22.0 13.8 53 6.0 SSW 17 20 9 11 - - 0.0
08/09:10pm 24.1 21.4 13.6 52 6.2 SW 20 22 11 12 - - 0.0
08/09:00pm 24.3 21.7 13.7 51 6.2 SSW 20 24 11 13 - - 0.0
08/08:50pm 24.5 21.5 13.6 50 6.4 SW 22 24 12 13 - - 0.0
08/08:40pm 24.7 21.6 13.5 49 6.6 SSW 22 26 12 14 - - 0.0
08/08:30pm 25.0 22.0 13.7 49 6.7 SSW 22 26 12 14 - - 0.0
08/08:20pm 25.4 22.4 13.8 48 6.9 SW 22 24 12 13 - - 0.0
08/08:10pm 25.7 22.0 13.9 48 7.0 SW 26 28 14 15 - - 0.0
08/08:00pm 26.3 23.4 14.0 46 7.3 SW 22 28 12 15 - - 0.0
08/07:50pm 26.8 23.9 13.9 45 7.7 SSW 22 24 12 13 - - 0.0
08/07:40pm 27.1 23.7 13.8 44 7.9 SW 24 28 13 15 - - 0.0
08/07:30pm 27.6 24.6 13.8 42 8.3 SW 22 26 12 14 - - 0.0
08/07:20pm 28.1 24.3 13.7 41 8.6 SSW 26 28 14 15 - - 0.0
08/07:10pm 28.9 25.5 13.6 39 9.2 SSW 24 30 13 16 - - 0.0
08/07:00pm 30.0 27.0 13.7 37 9.8 SW 22 26 12 14 - - 0.0
08/06:50pm 31.4 28.9 9.7 26 12.4 SW 13 17 7 9 - - 0.0
08/06:40pm 31.7 29.6 9.9 26 12.5 SW 11 13 6 7 - - 0.0
08/06:30pm 32.2 29.8 10.2 25 12.7 WSW 13 17 7 9 - - 0.0
08/06:20pm 32.5 29.7 10.0 25 12.9 SW 15 19 8 10 - - 0.0
08/06:10pm 32.8 30.4 10.0 24 13.1 WSW 13 17 7 9 - - 0.0
08/06:00pm 33.1 30.6 9.8 24 13.4 WSW 13 15 7 8 - - 0.0
08/05:50pm 33.2 30.5 9.1 22 13.7 W 13 19 7 10 - - 0.0
08/05:40pm 33.3 30.7 9.5 23 13.6 WSW 13 17 7 9 - - 0.0
08/05:30pm 33.5 31.4 9.9 23 13.6 W 11 17 6 9 - - 0.0
08/05:20pm 33.4 31.1 10.3 24 13.4 W 13 17 7 9 - - 0.0
08/05:10pm 33.7 30.9 9.9 23 13.7 WSW 15 20 8 11 - - 0.0
08/05:00pm 33.7 30.9 9.9 23 13.7 SW 15 19 8 10 - - 0.0
08/04:50pm 33.6 31.2 10.1 23 13.6 SW 13 17 7 9 - - 0.0
08/04:40pm 34.0 31.7 10.6 24 13.7 WSW 13 19 7 10 - - 0.0
08/04:30pm 33.7 31.7 10.2 23 13.6 SW 11 17 6 9 - - 0.0
08/04:20pm 33.8 31.5 10.3 23 13.7 SW 13 17 7 9 - - 0.0
08/04:10pm 33.8 31.6 10.7 24 13.5 WSW 13 19 7 10 - - 0.0
08/04:00pm 33.7 31.7 10.3 24 13.6 W 11 17 6 9 - - 0.0
08/03:50pm 33.7 32.4 11.2 25 13.3 W 9 13 5 7 - - 0.0
08/03:40pm 33.7 30.9 11.2 25 13.3 WSW 17 20 9 11 - - 0.0
08/03:30pm 33.6 31.4 10.8 24 13.3 WSW 13 17 7 9 - - 0.0
08/03:20pm 33.2 32.3 11.3 26 12.9 W 7 15 4 8 - - 0.0
08/03:10pm 33.5 31.8 11.2 25 13.1 WSW 11 19 6 10 - - 0.0
08/03:00pm 33.4 31.2 10.8 25 13.2 W 13 20 7 11 - - 0.0
08/02:50pm 33.2 31.6 11.4 26 12.9 WSW 11 17 6 9 - - 0.0
08/02:40pm 33.3 31.3 11.5 26 12.9 WSW 13 20 7 11 - - 0.0
08/02:30pm 32.9 31.8 11.8 27 12.5 W 9 15 5 8 - - 0.0
08/02:20pm 32.7 30.4 11.6 27 12.5 W 15 20 8 11 - - 0.0
08/02:10pm 32.6 31.1 11.9 28 12.3 WNW 11 19 6 10 - - 0.0
08/02:00pm 32.4 30.9 11.9 28 12.1 SW 11 17 6 9 - - 0.0
08/01:50pm 31.9 30.1 12.1 29 11.7 SW 13 17 7 9 - - 0.0
08/01:40pm 31.8 30.5 12.4 30 11.5 SSW 11 19 6 10 - - 0.0
08/01:30pm 32.1 31.0 12.1 29 11.9 SSW 9 17 5 9 - - 0.0
08/01:20pm 31.4 29.7 12.6 31 11.2 SW 13 19 7 10 - - 0.0
08/01:10pm 31.4 30.0 12.3 31 11.3 SSW 11 19 6 10 - - 0.0
08/01:00pm 31.0 29.9 12.1 31 11.2 SW 9 13 5 7 - - 0.0
08/12:50pm 30.9 29.0 11.8 31 11.2 WSW 13 17 7 9 - - 0.0
08/12:40pm 30.5 28.6 11.8 31 11.0 W 13 20 7 11 - - 0.0
08/12:30pm 30.4 29.4 12.2 32 10.7 WSW 9 15 5 8 - - 0.0
08/12:20pm 30.3 28.2 12.3 33 10.6 WSW 15 19 8 10 - - 0.0
08/12:10pm 29.7 28.4 12.5 34 10.2 SW 11 15 6 8 - - 0.0
08/12:00pm 30.1 28.9 12.7 34 10.3 WSW 11 17 6 9 - - 0.0
08/11:50am 29.9 28.5 12.2 33 10.4 SW 11 17 6 9 - - 0.0
08/11:40am 29.8 28.6 12.8 35 10.1 SSW 11 17 6 9 - - 0.0
08/11:30am 29.1 28.0 13.0 37 9.6 SSW 11 17 6 9 - - 0.0
08/11:20am 28.6 27.9 13.1 38 9.2 WSW 9 15 5 8 - - 0.0
08/11:10am 28.6 27.4 12.9 38 9.3 S 11 19 6 10 - - 0.0
08/11:00am 28.2 26.9 12.5 37 9.2 SSW 11 15 6 8 - - 0.0
08/10:50am 28.0 27.2 13.0 39 8.9 SW 9 15 5 8 - - 0.0
08/10:40am 28.1 26.9 12.9 39 9.0 W 11 19 6 10 - - 0.0
08/10:30am 27.4 26.0 13.4 42 8.3 SW 13 17 7 9 - - 0.0
08/10:20am 27.6 26.2 13.4 41 8.4 SSW 13 19 7 10 - - 0.0
08/10:10am 26.8 25.8 13.3 43 8.0 SW 11 15 6 8 - - 0.0
08/10:00am 26.3 24.8 13.2 44 7.7 SW 13 19 7 10 - - 0.0
08/09:50am 26.5 25.9 13.5 44 7.7 SSW 9 13 5 7 - - 0.0
08/09:40am 26.2 24.7 13.2 44 7.7 SW 13 17 7 9 - - 0.0
08/09:30am 26.1 24.7 13.3 45 7.5 SSW 13 17 7 9 - - 0.0
08/09:20am 26.2 24.4 13.4 45 7.6 SW 15 17 8 9 - - 0.0
08/09:10am 25.5 24.2 13.8 48 6.9 SW 13 19 7 10 - - 0.0
08/09:00am 25.3 24.0 13.7 48 6.9 SSW 13 17 7 9 - - 0.0
08/08:50am 24.8 23.3 14.1 51 6.4 SSW 15 19 8 10 - - 0.0
08/08:40am 24.3 22.9 13.5 51 6.3 SSW 13 17 7 9 - - 0.0
08/08:30am 23.6 22.3 13.7 53 5.8 SW 13 15 7 8 - - 0.0
08/08:20am 23.4 22.0 14.5 57 5.3 SSW 15 17 8 9 - - 0.0
08/08:10am 23.8 22.8 14.5 56 5.5 SSW 13 17 7 9 - - 0.0
08/08:00am 23.3 22.6 15.5 61 4.7 SW 13 15 7 8 - - 0.0
08/07:50am 23.0 22.6 15.3 62 4.6 SW 11 15 6 8 - - 0.0
08/07:40am 22.9 22.6 15.4 62 4.5 WSW 11 15 6 8 - - 0.0
08/07:30am 22.6 22.6 16.2 67 3.9 WSW 11 13 6 7 - - 0.0
08/07:20am 22.2 22.2 16.3 69 3.6 WSW 11 15 6 8 - - 0.0
08/07:10am 21.7 21.6 16.1 70 3.4 WSW 11 13 6 7 - - 0.0
08/07:00am 21.3 20.9 16.1 72 3.1 WSW 13 15 7 8 - - 0.0
08/06:50am 21.1 21.0 15.9 72 3.1 WSW 11 13 6 7 - - 0.0
08/06:40am 20.7 20.9 15.8 73 2.9 W 9 13 5 7 - - 0.0
08/06:30am 20.3 20.8 15.6 74 2.8 W 7 11 4 6 - - 0.0
08/06:20am 19.8 20.3 15.5 76 2.6 W 7 9 4 5 - - 0.0
08/06:10am 19.6 20.0 15.4 77 2.5 W 7 9 4 5 - - 0.0
08/06:00am 19.3 19.7 15.3 77 2.4 W 7 7 4 4 - - 0.0
08/05:50am 19.1 19.5 15.2 78 2.3 W 7 7 4 4 - - 0.0
08/05:40am 19.0 19.4 15.2 78 2.2 W 7 9 4 5 - - 0.0
08/05:30am 18.9 19.2 15.1 78 2.2 W 7 9 4 5 - - 0.0
08/05:20am 18.9 19.3 15.2 79 2.2 WSW 7 9 4 5 - - 0.0
08/05:10am 19.0 19.4 15.2 78 2.2 WSW 7 9 4 5 - - 0.0
08/05:00am 19.0 19.4 15.2 78 2.2 WSW 7 9 4 5 - - 0.0
08/04:50am 19.1 19.5 15.2 78 2.3 W 7 9 4 5 - - 0.0
08/04:40am 19.2 19.6 15.3 78 2.3 WSW 7 9 4 5 - - 0.0
08/04:30am 19.2 19.2 15.3 78 2.3 WSW 9 11 5 6 - - 0.0
08/04:20am 19.3 19.3 15.3 77 2.4 WSW 9 11 5 6 - - 0.0
08/04:10am 19.4 19.4 15.3 77 2.4 WSW 9 11 5 6 - - 0.0
08/04:00am 19.5 19.5 15.3 76 2.5 WSW 9 11 5 6 - - 0.0
08/03:50am 19.5 19.1 15.3 76 2.5 WSW 11 13 6 7 - - 0.0
08/03:40am 19.6 19.3 15.4 77 2.5 WSW 11 13 6 7 - - 0.0
08/03:30am 19.7 19.4 15.4 76 2.6 WSW 11 11 6 6 - - 0.0
08/03:20am 19.7 19.4 15.4 76 2.6 WSW 11 13 6 7 - - 0.0
08/03:10am 19.8 19.1 15.4 76 2.6 WSW 13 15 7 8 - - 0.0
08/03:00am 19.9 19.2 15.5 76 2.6 WSW 13 13 7 7 - - 0.0
08/02:50am 20.0 19.3 15.5 75 2.7 WSW 13 19 7 10 - - 0.0
08/02:40am 20.0 19.3 15.5 75 2.7 WSW 13 17 7 9 - - 0.0
08/02:30am 20.1 19.1 15.6 75 2.7 WSW 15 19 8 10 - - 0.0
08/02:20am 20.2 19.2 15.6 75 2.7 WSW 15 19 8 10 - - 0.0
08/02:10am 20.3 19.3 15.6 74 2.8 WSW 15 17 8 9 - - 0.0
08/02:00am 20.3 19.0 15.7 75 2.8 WSW 17 19 9 10 - - 0.0
08/01:50am 20.4 19.1 15.7 74 2.8 WSW 17 20 9 11 - - 0.0
08/01:40am 20.5 19.2 15.7 74 2.9 WSW 17 20 9 11 - - 0.0
08/01:30am 20.6 19.3 15.7 73 2.9 WSW 17 19 9 10 - - 0.0
08/01:20am 20.7 19.0 15.7 73 3.0 WSW 19 20 10 11 - - 0.0
08/01:10am 20.8 19.1 15.8 73 3.0 WSW 19 22 10 12 - - 0.0
08/01:00am 20.9 19.6 15.9 73 3.0 WSW 17 20 9 11 - - 0.0
08/12:50am 20.9 19.7 16.1 74 2.9 WSW 17 19 9 10 - - 0.0
08/12:40am 21.0 19.4 16.0 73 3.0 WSW 19 19 10 10 - - 0.0
08/12:30am 21.1 19.5 16.0 72 3.1 WSW 19 20 10 11 - - 0.0
08/12:20am 21.2 20.0 16.0 72 3.1 WSW 17 19 9 10 - - 0.0
08/12:10am 21.4 20.2 16.1 72 3.2 WSW 17 19 9 10 - - 0.0
08/12:00am 21.4 20.2 16.1 72 3.2 WSW 17 20 9 11 - - 0.0
 
Date/Time
WST
Temp
°C
App
Temp
°C
Dew
Point
°C
Rel
Hum
%
Delta-T
°C
Wind Press
QNH
hPa
Press
MSL
hPa
Rain since
9am
mm
Dir  Spd
km/h
Gust
km/h
Spd
kts
Gust
kts
07/11:50pm 21.5 19.9 16.1 71 3.3 WSW 19 20 10 11 - - 0.0
07/11:40pm 21.7 20.5 16.1 70 3.4 WSW 17 20 9 11 - - 0.0
07/11:30pm 21.7 19.9 16.1 70 3.4 WSW 20 22 11 12 - - 0.0
07/11:20pm 21.9 20.3 16.1 69 3.5 WSW 19 20 10 11 - - 0.0
07/11:10pm 22.1 20.8 15.7 67 3.9 WSW 17 19 9 10 - - 0.0
07/11:00pm 22.2 20.4 15.5 66 4.0 WSW 19 20 10 11 - - 0.0
07/10:50pm 22.3 20.1 15.0 63 4.4 WSW 20 22 11 12 - - 0.0
07/10:40pm 22.5 20.3 14.8 61 4.6 WSW 20 24 11 13 - - 0.0
07/10:30pm 22.7 20.4 14.7 60 4.8 WSW 20 22 11 12 - - 0.0
07/10:20pm 22.9 20.5 14.4 58 5.0 WSW 20 22 11 12 - - 0.0
07/10:10pm 23.0 20.6 14.4 58 5.1 WSW 20 24 11 13 - - 0.0
07/10:00pm 23.1 20.3 14.4 58 5.2 WSW 22 24 12 13 - - 0.0
07/09:50pm 23.4 20.6 14.4 57 5.3 WSW 22 26 12 14 - - 0.0
07/09:40pm 23.8 20.5 13.9 54 5.8 WSW 24 28 13 15 - - 0.0
07/09:30pm 24.2 20.9 12.7 48 6.7 WSW 22 24 12 13 - - 0.0
07/09:20pm 24.5 20.8 11.6 44 7.3 WSW 22 26 12 14 - - 0.0
07/09:10pm 24.7 21.0 11.4 43 7.5 WSW 22 24 12 13 - - 0.0
07/09:00pm 24.8 21.4 11.4 43 7.6 WSW 20 22 11 12 - - 0.0
07/08:50pm 24.9 21.5 11.4 42 7.7 WSW 20 26 11 14 - - 0.0
07/08:40pm 25.0 21.3 11.5 42 7.7 WSW 22 26 12 14 - - 0.0
07/08:30pm 25.1 21.7 12.4 45 7.3 WSW 22 24 12 13 - - 0.0
07/08:20pm 25.3 22.4 12.9 46 7.2 WSW 20 22 11 12 - - 0.0
07/08:10pm 25.4 22.2 13.0 46 7.3 WSW 22 24 12 13 - - 0.0
07/08:00pm 25.7 23.2 13.4 46 7.3 WSW 19 22 10 12 - - 0.0
07/07:50pm 25.9 23.2 13.6 46 7.3 WSW 20 24 11 13 - - 0.0
07/07:40pm 26.1 23.4 13.6 46 7.4 WSW 20 26 11 14 - - 0.0
07/07:30pm 26.3 22.9 13.7 45 7.5 WSW 24 28 13 15 - - 0.0
07/07:20pm 26.5 22.7 13.7 45 7.6 WSW 26 28 14 15 - - 0.0
07/07:10pm 26.8 23.5 13.9 45 7.7 WSW 24 28 13 15 - - 0.0
07/07:00pm 27.1 23.8 14.0 44 7.8 WSW 24 26 13 14 - - 0.0
07/06:50pm 27.5 24.2 14.1 43 8.0 WSW 24 30 13 16 - - 0.0
07/06:40pm 28.1 24.9 14.2 42 8.4 WSW 24 26 13 14 - - 0.0
07/06:30pm 28.7 25.5 14.3 41 8.7 WSW 24 28 13 15 - - 0.0
07/06:20pm 29.2 25.6 14.2 40 9.1 WSW 26 28 14 15 - - 0.0
07/06:10pm 29.5 25.8 14.0 38 9.4 WSW 26 30 14 16 - - 0.0
07/06:00pm 30.1 26.1 14.1 37 9.7 WSW 28 30 15 16 - - 0.0
07/05:50pm 31.0 27.7 14.1 35 10.3 WSW 24 30 13 16 - - 0.0
07/05:40pm 31.5 28.5 13.6 33 10.8 WSW 22 28 12 15 - - 0.0
07/05:30pm 31.8 28.1 13.8 33 10.9 WSW 26 30 14 16 - - 0.0
07/05:20pm 32.7 29.7 13.7 31 11.6 W 22 26 12 14 - - 0.0
07/05:10pm 33.2 30.5 13.4 30 12.0 W 20 28 11 15 - - 0.0
07/05:00pm 33.4 30.0 12.4 28 12.6 WSW 22 28 12 15 - - 0.0
07/04:50pm 33.7 30.2 12.1 27 12.9 WSW 22 28 12 15 - - 0.0
07/04:40pm 34.1 30.6 12.3 26 13.1 WSW 22 28 12 15 - - 0.0
07/04:30pm 34.4 30.8 11.9 25 13.4 W 22 26 12 14 - - 0.0
07/04:20pm 34.8 31.8 11.9 25 13.7 W 19 26 10 14 - - 0.0
07/04:10pm 34.7 32.0 11.6 24 13.7 W 17 24 9 13 - - 0.0
07/04:00pm 34.9 31.6 11.5 24 13.9 WSW 20 24 11 13 - - 0.0
07/03:50pm 34.9 31.8 12.1 25 13.7 W 20 28 11 15 - - 0.0
07/03:40pm 35.0 32.0 12.1 25 13.7 WSW 19 26 10 14 - - 0.0
07/03:30pm 35.2 32.2 12.7 25 13.6 W 20 28 11 15 - - 0.0
07/03:20pm 35.6 33.2 12.7 25 13.9 W 17 20 9 11 - - 0.0
07/03:10pm 35.3 33.0 13.0 26 13.6 W 17 24 9 13 - - 0.0
07/03:00pm 35.7 34.0 13.5 26 13.6 W 15 20 8 11 - - 0.0
07/02:50pm 35.4 33.7 13.5 26 13.4 WNW 15 20 8 11 - - 0.0
07/02:40pm 35.5 34.5 13.3 26 13.6 W 11 17 6 9 - - 0.0
07/02:30pm 35.3 33.5 13.3 26 13.5 WNW 15 20 8 11 - - 0.0
07/02:20pm 34.9 33.2 13.5 27 13.1 WNW 15 17 8 9 - - 0.0
07/02:10pm 34.8 33.9 13.6 28 13.0 NW 11 15 6 8 - - 0.0
07/02:00pm 34.8 32.6 13.3 27 13.1 W 17 22 9 12 - - 0.0
07/01:50pm 34.4 32.2 13.3 28 12.9 W 17 24 9 13 - - 0.0

Other formats

Comma delimited format used in spreadsheet applications
http://www.bom.gov.au/fwo/IDW60801/IDW60801.99150.axf

JavaScript Object Notation format (JSON) in row-major order
http://www.bom.gov.au/fwo/IDW60801/IDW60801.99150.json

Data quality

Most of these data are generated automatically and are frequently updated. Quality checks on data are not normally performed. It is possible for incorrect values to appear. Refer to information at About Latest Weather Observations and please check the disclaimer before using these data.